Time;durP1;ratioP1;P1;durP2;ratioP2;P2;SDS_P1;SDS_P2;PMS_P1;PMS_P2;Temp;Humidity;BMP_temperature;BMP_pressure;BME280_temperature;BME280_humidity;BME280_pressure;Samples;Min_cycle;Max_cycle;Signal;HPM_P1;HPM_P2
2022/07/07 00:01:40;;;;;;;2.47;1.60;;;;;;;;;;4963645;28;20038;-90
2022/07/07 00:04:08;;;;;;;1.13;1.08;;;;;;;;;;4970582;28;20110;-90
2022/07/07 00:06:34;;;;;;;1.17;1.17;;;;;;;;;;4970011;28;20042;-89
2022/07/07 00:09:00;;;;;;;3.63;2.08;;;;;;;;;;4969640;28;20027;-91
2022/07/07 00:11:26;;;;;;;1.90;1.80;;;;;;;;;;4968902;28;20273;-89
2022/07/07 00:13:52;;;;;;;1.40;1.30;;;;;;;;;;4949726;28;20473;-90
2022/07/07 00:16:18;;;;;;;1.13;1.13;;;;;;;;;;4969771;28;20061;-89
2022/07/07 00:18:44;;;;;;;1.52;1.42;;;;;;;;;;4970381;28;20059;-90
2022/07/07 00:21:10;;;;;;;1.50;1.40;;;;;;;;;;4969194;28;20023;-90
2022/07/07 00:23:36;;;;;;;2.83;1.63;;;;;;;;;;4952318;28;20077;-90
2022/07/07 00:26:03;;;;;;;1.70;1.60;;;;;;;;;;4969808;28;20058;-89
2022/07/07 00:28:29;;;;;;;1.77;1.67;;;;;;;;;;4969752;28;20066;-89
2022/07/07 00:30:55;;;;;;;1.50;1.40;;;;;;;;;;4969831;28;20070;-90
2022/07/07 00:33:21;;;;;;;2.00;1.77;;;;;;;;;;4969453;28;20035;-89
2022/07/07 00:35:47;;;;;;;1.85;1.75;;;;;;;;;;4969348;28;20035;-90
2022/07/07 00:38:13;;;;;;;1.17;1.17;;;;;;;;;;4951469;28;20642;-89
2022/07/07 00:40:39;;;;;;;1.85;1.75;;;;;;;;;;4952350;28;20023;-91
2022/07/07 00:43:05;;;;;;;1.73;1.63;;;;;;;;;;4973058;28;20042;-90
2022/07/07 00:45:31;;;;;;;2.10;1.85;;;;;;;;;;4969188;28;20503;-89
2022/07/07 00:47:58;;;;;;;2.20;1.80;;;;;;;;;;4951401;28;20113;-90
2022/07/07 00:50:24;;;;;;;3.13;1.83;;;;;;;;;;4969844;28;20042;-89
2022/07/07 00:52:50;;;;;;;2.17;2.00;;;;;;;;;;4969090;28;20047;-89
2022/07/07 00:55:17;;;;;;;9.00;2.30;;;;;;;;;;4969454;28;20034;-90
2022/07/07 00:57:42;;;;;;;2.75;2.53;;;;;;;;;;4970120;28;20054;-89
2022/07/07 01:00:10;;;;;;;2.35;2.25;;;;;;;;;;4972430;28;20371;-90
2022/07/07 01:02:37;;;;;;;2.25;2.15;;;;;;;;;;4973001;28;20113;-89
2022/07/07 01:05:05;;;;;;;2.20;2.10;;;19.00;55.80;;;;;;4972841;28;20046;-90
2022/07/07 01:07:31;;;;;;;2.22;2.13;;;;;;;;;;4955448;28;20711;-90
2022/07/07 01:09:58;;;;;;;4.68;2.88;;;;;;;;;;4973338;28;20027;-89
2022/07/07 01:12:24;;;;;;;2.25;2.15;;;;;;;;;;4972893;28;20027;-90
2022/07/07 01:14:50;;;;;;;2.65;2.55;;;;;;;;;;4972503;28;20167;-91
2022/07/07 01:17:16;;;;;;;2.63;2.53;;;;;;;;;;4973012;28;20035;-89
2022/07/07 01:19:42;;;;;;;3.80;2.55;;;;;;;;;;4972071;28;20113;-91
2022/07/07 01:22:15;;;;;;;2.38;2.28;;;;;;;;;;4973353;28;20034;-89
2022/07/07 01:24:41;;;;;;;2.95;2.75;;;;;;;;;;4967829;28;20082;-89
2022/07/07 01:27:11;;;;;;;3.30;2.97;;;;;;;;;;4968891;28;20054;-90
2022/07/07 01:29:39;;;;;;;2.83;2.70;;;;;;;;;;4954105;28;20049;-89
2022/07/07 01:32:08;;;;;;;3.17;2.90;;;;;;;;;;4972464;28;20030;-89
2022/07/07 01:34:35;;;;;;;2.95;2.80;;;18.60;58.00;;;;;;4972770;28;20122;-90
2022/07/07 01:37:01;;;;;;;2.50;2.35;;;;;;;;;;4971682;28;20645;-89
2022/07/07 01:39:27;;;;;;;2.92;2.83;;;;;;;;;;4954766;28;20038;-89
2022/07/07 01:41:53;;;;;;;4.53;2.80;;;;;;;;;;4954907;28;20037;-90
2022/07/07 01:44:19;;;;;;;2.83;2.72;;;;;;;;;;4970116;28;20027;-89
2022/07/07 01:46:45;;;;;;;2.80;2.67;;;;;;;;;;4965555;28;20061;-90
2022/07/07 01:49:11;;;;;;;2.72;2.63;;;;;;;;;;4972151;28;20050;-90
2022/07/07 01:51:38;;;;;;;3.33;3.13;;;;;;;;;;4967517;28;20088;-90
2022/07/07 01:54:04;;;;;;;3.13;2.78;;;;;;;;;;4964874;28;20040;-91
2022/07/07 01:56:30;;;;;;;3.00;2.90;;;;;;;;;;4944646;29;20035;-89
2022/07/07 01:58:56;;;;;;;3.40;3.30;;;;;;;;;;4952967;28;20031;-90
2022/07/07 02:01:23;;;;;;;5.27;4.13;;;;;;;;;;4952507;28;20066;-90
2022/07/07 02:03:49;;;;;;;3.13;3.03;;;;;;;;;;4951782;28;20023;-89
2022/07/07 02:06:15;;;;;;;2.83;2.72;;;;;;;;;;4952274;28;20027;-90
2022/07/07 02:08:41;;;;;;;4.97;3.90;;;;;;;;;;4952089;28;20089;-90
2022/07/07 02:11:13;;;;;;;3.92;3.10;;;;;;;;;;4952121;28;20043;-90
2022/07/07 02:13:40;;;;;;;3.08;2.95;;;;;;;;;;4947989;28;20152;-89
2022/07/07 02:16:06;;;;;;;4.03;3.72;;;;;;;;;;4949545;28;20065;-89
2022/07/07 02:18:38;;;;;;;3.38;3.25;;;18.30;58.90;;;;;;4952138;28;20023;-89
2022/07/07 02:21:05;;;;;;;3.35;3.15;;;18.30;58.80;;;;;;4952134;28;20516;-89
2022/07/07 02:23:31;;;;;;;11.23;3.05;;;;;;;;;;4951253;29;20035;-90
2022/07/07 02:25:57;;;;;;;3.47;3.20;;;;;;;;;;4948299;28;20055;-90
2022/07/07 02:28:24;;;;;;;3.42;3.22;;;;;;;;;;4952215;28;20066;-90
2022/07/07 02:30:50;;;;;;;6.05;3.40;;;;;;;;;;4952990;28;20050;-90
2022/07/07 02:33:16;;;;;;;3.37;3.07;;;;;;;;;;4950841;28;20118;-90
2022/07/07 02:35:42;;;;;;;3.47;3.28;;;;;;;;;;4949380;29;20053;-90
2022/07/07 02:38:09;;;;;;;2.58;2.47;;;;;;;;;;4952394;28;20549;-90
2022/07/07 02:40:35;;;;;;;3.95;3.55;;;;;;;;;;4952213;28;20031;-89
2022/07/07 02:43:01;;;;;;;3.30;3.15;;;;;;;;;;4951361;28;20387;-89
2022/07/07 02:45:27;;;;;;;3.95;3.65;;;;;;;;;;4951360;28;20039;-90
2022/07/07 02:47:53;;;;;;;3.13;2.92;;;;;;;;;;4951167;28;20027;-90
2022/07/07 02:50:19;;;;;;;3.38;3.17;;;;;;;;;;4947733;29;20038;-89
2022/07/07 02:52:45;;;;;;;3.28;3.08;;;;;;;;;;4949342;28;20434;-89
2022/07/07 02:55:11;;;;;;;4.95;4.60;;;;;;;;;;4950600;28;20023;-89
2022/07/07 02:57:37;;;;;;;5.63;5.13;;;;;;;;;;4951980;28;20075;-89
2022/07/07 03:00:04;;;;;;;3.90;3.70;;;;;;;;;;4951352;28;20095;-90
2022/07/07 03:02:30;;;;;;;4.90;3.30;;;;;;;;;;4951391;29;20035;-90
2022/07/07 03:04:56;;;;;;;7.57;3.88;;;;;;;;;;4950975;28;20494;-90
2022/07/07 03:07:22;;;;;;;2.90;2.80;;;;;;;;;;4951915;28;20042;-91
2022/07/07 03:09:48;;;;;;;3.85;3.60;;;;;;;;;;4951869;28;20537;-90
2022/07/07 03:12:14;;;;;;;2.85;2.75;;;;;;;;;;4947424;28;20054;-91
2022/07/07 03:14:40;;;;;;;3.88;3.53;;;;;;;;;;4949493;29;20031;-89
2022/07/07 03:17:06;;;;;;;2.70;2.60;;;;;;;;;;4951063;28;20027;-89
2022/07/07 03:19:34;;;;;;;3.45;3.25;;;;;;;;;;4949887;28;20090;-91
2022/07/07 03:22:00;;;;;;;3.67;3.38;;;;;;;;;;4951599;28;20023;-89
2022/07/07 03:24:27;;;;;;;4.05;3.28;;;;;;;;;;4954189;28;20038;-89
2022/07/07 03:26:53;;;;;;;3.00;2.90;;;;;;;;;;4955395;28;20027;-90
2022/07/07 03:29:19;;;;;;;2.88;2.78;;;;;;;;;;4950846;29;20695;-90
2022/07/07 03:31:45;;;;;;;3.42;3.22;;;;;;;;;;4948400;28;20046;-89
2022/07/07 03:34:11;;;;;;;3.53;3.30;;;;;;;;;;4961180;28;20078;-90
2022/07/07 03:36:37;;;;;;;2.92;2.83;;;;;;;;;;4951245;28;20518;-90
2022/07/07 03:39:04;;;;;;;3.63;3.42;;;;;;;;;;4950673;28;20054;-89
2022/07/07 03:41:30;;;;;;;2.90;2.80;;;;;;;;;;4950969;28;20046;-90
2022/07/07 03:43:56;;;;;;;3.50;3.30;;;;;;;;;;4950999;28;20480;-90
2022/07/07 03:46:22;;;;;;;6.07;3.40;;;;;;;;;;4950439;28;20023;-89
2022/07/07 03:48:48;;;;;;;3.42;3.22;;;;;;;;;;4951642;28;20486;-90
2022/07/07 03:51:14;;;;;;;2.90;2.75;;;;;;;;;;4950830;28;20077;-90
2022/07/07 03:53:40;;;;;;;5.10;3.75;;;;;;;;;;4953357;28;20047;-90
2022/07/07 03:56:06;;;;;;;3.40;3.20;;;;;;;;;;4950703;28;20027;-89
2022/07/07 03:58:33;;;;;;;6.00;4.10;;;;;;;;;;4950449;28;20035;-90
2022/07/07 04:01:00;;;;;;;4.15;3.08;;;;;;;;;;4950925;28;20056;-89
2022/07/07 04:03:26;;;;;;;3.47;3.17;;;;;;;;;;4950609;28;20131;-90
2022/07/07 04:05:52;;;;;;;3.63;3.33;;;;;;;;;;4950686;28;20106;-90
2022/07/07 04:08:18;;;;;;;3.05;2.85;;;;;;;;;;4950308;29;20118;-90
2022/07/07 04:10:44;;;;;;;3.70;3.40;;;;;;;;;;4960866;28;20728;-90
2022/07/07 04:13:10;;;;;;;3.22;3.05;;;;;;;;;;4962417;28;20097;-91
2022/07/07 04:15:36;;;;;;;3.50;3.35;;;;;;;;;;4944871;28;20038;-90
2022/07/07 04:18:02;;;;;;;3.65;3.38;;;;;;;;;;4949983;28;20026;-90
2022/07/07 04:20:29;;;;;;;3.55;3.35;;;;;;;;;;4950119;29;20498;-88
2022/07/07 04:22:56;;;;;;;3.45;3.35;;;;;;;;;;4950806;28;20073;-90
2022/07/07 04:25:21;;;;;;;3.90;3.15;;;;;;;;;;4949144;28;20502;-89
2022/07/07 04:27:48;;;;;;;3.17;2.97;;;;;;;;;;4951043;28;20114;-89
2022/07/07 04:30:14;;;;;;;3.72;3.53;;;;;;;;;;4950504;28;20041;-90
2022/07/07 04:32:40;;;;;;;3.60;3.40;;;;;;;;;;4951345;28;20031;-89
2022/07/07 04:35:06;;;;;;;3.70;3.60;;;;;;;;;;4953768;28;20050;-90
2022/07/07 04:37:32;;;;;;;3.65;3.35;;;;;;;;;;4954087;28;20058;-91
2022/07/07 04:39:58;;;;;;;4.53;3.75;;;;;;;;;;4954642;28;20055;-89
2022/07/07 04:42:24;;;;;;;4.15;3.90;;;;;;;;;;4953779;28;20028;-90
2022/07/07 04:44:50;;;;;;;3.25;3.13;;;;;;;;;;4953302;28;20038;-89
2022/07/07 04:47:17;;;;;;;4.28;3.88;;;;;;;;;;4953792;29;20070;-89
2022/07/07 04:49:43;;;;;;;4.10;3.90;;;;;;;;;;4953735;28;20043;-89
2022/07/07 04:52:09;;;;;;;3.67;3.40;;;;;;;;;;4956699;28;20026;-89
2022/07/07 04:54:35;;;;;;;3.63;3.33;;;;;;;;;;4955572;28;20027;-89
2022/07/07 04:57:01;;;;;;;3.00;2.80;;;;;;;;;;4955522;28;20065;-90
2022/07/07 04:59:27;;;;;;;3.22;3.10;;;;;;;;;;4955377;28;20410;-89
2022/07/07 05:01:53;;;;;;;2.97;2.88;;;;;;;;;;4973178;28;20057;-89
2022/07/07 05:04:19;;;;;;;3.80;3.60;;;;;;;;;;4955200;28;20485;-89
2022/07/07 05:06:45;;;;;;;3.60;3.50;;;;;;;;;;4973872;28;20059;-89
2022/07/07 05:09:11;;;;;;;3.65;3.45;;;;;;;;;;4970296;28;20476;-91
2022/07/07 05:11:37;;;;;;;3.65;3.35;;;;;;;;;;4954702;28;20037;-89
2022/07/07 05:14:03;;;;;;;4.30;3.95;;;;;;;;;;4950810;28;20054;-84
2022/07/07 05:16:29;;;;;;;7.18;5.28;;;;;;;;;;4970931;28;20125;-84
2022/07/07 05:18:55;;;;;;;3.92;3.72;;;;;;;;;;4972031;28;20035;-84
2022/07/07 05:21:21;;;;;;;4.25;3.90;;;;;;;;;;4970659;28;20061;-84
2022/07/07 05:23:48;;;;;;;10.02;3.92;;;;;;;;;;4970163;28;20051;-84
2022/07/07 05:26:14;;;;;;;4.75;3.90;;;;;;;;;;4970248;28;20039;-84
2022/07/07 05:28:43;;;;;;;3.75;3.55;;;;;;;;;;4970058;28;20015;-83
2022/07/07 05:31:12;;;;;;;4.10;3.90;;;;;;;;;;4968095;28;20525;-84
2022/07/07 05:33:39;;;;;;;3.55;3.25;;;;;;;;;;4970099;28;20037;-84
2022/07/07 05:36:05;;;;;;;3.28;3.17;;;;;;;;;;4970625;28;20034;-84
2022/07/07 05:38:31;;;;;;;4.00;3.63;;;;;;;;;;4970829;28;20023;-84
2022/07/07 05:40:57;;;;;;;3.88;3.65;;;;;;;;;;4968037;28;20035;-84
2022/07/07 05:43:24;;;;;;;4.43;4.13;;;;;;;;;;4968951;28;20102;-83
2022/07/07 05:45:50;;;;;;;3.60;3.40;;;;;;;;;;4970884;28;20053;-84
2022/07/07 05:48:16;;;;;;;3.67;3.47;;;;;;;;;;4970231;28;20065;-84
2022/07/07 05:50:42;;;;;;;3.95;3.63;;;;;;;;;;4948872;28;20047;-84
2022/07/07 05:53:08;;;;;;;3.67;3.42;;;;;;;;;;4947279;28;20462;-83
2022/07/07 05:55:34;;;;;;;3.63;3.42;;;;;;;;;;4967322;28;20528;-84
2022/07/07 05:58:00;;;;;;;3.70;3.42;;;;;;;;;;4969724;28;20027;-85
2022/07/07 06:00:27;;;;;;;4.03;3.72;;;;;;;;;;4967982;28;20034;-84
2022/07/07 06:02:53;;;;;;;3.25;3.05;;;;;;;;;;4969349;28;20030;-84
2022/07/07 06:05:19;;;;;;;4.05;3.63;;;;;;;;;;4965733;28;20031;-84
2022/07/07 06:07:45;;;;;;;3.90;3.70;;;;;;;;;;4966680;28;20026;-84
2022/07/07 06:10:12;;;;;;;6.40;3.17;;;;;;;;;;4966910;28;20105;-85
2022/07/07 06:12:38;;;;;;;7.63;2.95;;;;;;;;;;4969643;28;20097;-84
2022/07/07 06:15:04;;;;;;;3.35;3.08;;;19.60;61.70;;;;;;4968350;28;23384;-84
2022/07/07 06:17:30;;;;;;;2.97;2.78;;;;;;;;;;4969425;28;20026;-84
2022/07/07 06:19:57;;;;;;;2.00;1.83;;;;;;;;;;4965169;28;20029;-82
2022/07/07 06:22:23;;;;;;;3.38;3.13;;;;;;;;;;4948272;28;20086;-84
2022/07/07 06:24:49;;;;;;;4.68;1.92;;;;;;;;;;4968939;28;20042;-83
2022/07/07 06:27:15;;;;;;;4.82;1.70;;;;;;;;;;4951126;28;20068;-84
2022/07/07 06:29:41;;;;;;;1.63;1.52;;;;;;;;;;4962560;28;20502;-83
2022/07/07 06:32:07;;;;;;;5.97;1.48;;;;;;;;;;4968159;28;20031;-85
2022/07/07 06:34:33;;;;;;;4.05;1.60;;;;;;;;;;4966199;28;20061;-83
2022/07/07 06:36:59;;;;;;;19.95;3.20;;;;;;;;;;4966841;28;20058;-84
2022/07/07 06:39:25;;;;;;;7.07;1.50;;;;;;;;;;4964409;28;20029;-84
2022/07/07 06:41:51;;;;;;;1.25;1.15;;;;;;;;;;4962483;28;20035;-84
2022/07/07 06:44:17;;;;;;;1.35;1.25;;;;;;;;;;4966425;28;20030;-84
2022/07/07 06:46:43;;;;;;;2.38;1.88;;;;;;;;;;4967594;28;20577;-84
2022/07/07 06:49:09;;;;;;;1.48;1.38;;;;;;;;;;4969240;28;20022;-84
2022/07/07 06:51:35;;;;;;;1.48;1.38;;;;;;;;;;4967868;28;20049;-83
2022/07/07 06:54:02;;;;;;;1.55;1.33;;;;;;;;;;4963095;28;20035;-85
2022/07/07 06:56:28;;;;;;;1.52;1.10;;;;;;;;;;4967786;28;20129;-84
2022/07/07 06:58:54;;;;;;;0.82;0.45;;;;;;;;;;4968749;28;20105;-84
2022/07/07 07:01:20;;;;;;;2.05;0.52;;;;;;;;;;4967955;28;20035;-85
2022/07/07 07:03:46;;;;;;;3.97;1.55;;;;;;;;;;4969713;28;20023;-85
2022/07/07 07:06:14;;;;;;;21.75;1.17;;;;;;;;;;4968223;28;20497;-86
2022/07/07 07:08:40;;;;;;;0.57;0.40;;;;;;;;;;4969046;28;20089;-85
2022/07/07 07:11:05;;;;;;;;;;;29.40;41.50;;;;;;4968588;28;20074;-87
2022/07/07 07:13:31;;;;;;;1.25;0.50;;;;;;;;;;4968585;28;19968;-84
2022/07/07 07:15:58;;;;;;;0.90;0.43;;;;;;;;;;4969288;28;20026;-84
2022/07/07 07:18:24;;;;;;;1.00;0.40;;;;;;;;;;4968328;28;20496;-85
2022/07/07 07:20:49;;;;;;;;;;;31.20;38.50;;;;;;4968884;28;20031;-84
2022/07/07 07:23:15;;;;;;;1.15;0.35;;;;;;;;;;4968675;28;19914;-84
2022/07/07 07:25:41;;;;;;;6.05;3.83;;;;;;;;;;4968469;28;20023;-85
2022/07/07 07:28:08;;;;;;;1.83;0.40;;;;;;;;;;4964456;28;20113;-84
2022/07/07 07:30:34;;;;;;;1.48;0.47;;;;;;;;;;4965972;28;20035;-85
2022/07/07 07:33:00;;;;;;;19.27;0.77;;;;;;;;;;4967622;28;20027;-85
2022/07/07 07:35:26;;;;;;;;;;;32.80;35.20;;;;;;4969011;28;20033;-85
2022/07/07 07:37:52;;;;;;;1.23;0.50;;;;;;;;;;4966917;28;19957;-84
2022/07/07 07:40:17;;;;;;;;;;;33.50;35.10;;;;;;4966294;28;20689;-84
2022/07/07 07:42:43;;;;;;;1.67;0.50;;;;;;;;;;4967846;28;19957;-83
2022/07/07 07:45:09;;;;;;;;;;;34.00;36.00;;;;;;4963574;28;20034;-84
2022/07/07 07:47:35;;;;;;;2.65;0.55;;;;;;;;;;4963404;28;19916;-86
2022/07/07 07:50:00;;;;;;;;;;;34.40;34.50;;;;;;4966798;28;20031;-85
2022/07/07 07:52:27;;;;;;;3.00;0.98;;;;;;;;;;4965851;28;19976;-86
2022/07/07 07:54:52;;;;;;;;;;;35.50;33.40;;;;;;4969313;28;20062;-86
2022/07/07 07:57:19;;;;;;;1.95;0.55;;;;;;;;;;4963672;28;19914;-85
2022/07/07 07:59:44;;;;;;;;;;;36.50;32.10;;;;;;4965888;28;20058;-85
2022/07/07 08:02:10;;;;;;;1.98;1.27;;;;;;;;;;4960509;28;19922;-85
2022/07/07 08:04:36;;;;;;;;;;;37.10;31.30;;;;;;4964349;28;20045;-88
2022/07/07 08:07:02;;;;;;;3.28;0.40;;;;;;;;;;4959015;28;19914;-87
2022/07/07 08:09:28;;;;;;;5.10;1.20;;;;;;;;;;4965514;28;20101;-86
2022/07/07 08:11:54;;;;;;;0.95;0.60;;;;;;;;;;4960855;28;20489;-86
2022/07/07 08:14:20;;;;;;;1.90;0.50;;;;;;;;;;4965490;28;20035;-86
2022/07/07 08:16:46;;;;;;;0.50;0.20;;;;;;;;;;4969515;28;20035;-86
2022/07/07 08:19:17;;;;;;;3.17;0.68;;;;;;;;;;4968477;28;20500;-86
2022/07/07 08:21:46;;;;;;;2.97;0.70;;;;;;;;;;4964250;28;20038;-85
2022/07/07 08:24:12;;;;;;;2.85;0.35;;;;;;;;;;4964008;28;20039;-87
2022/07/07 08:26:38;;;;;;;1.38;0.70;;;;;;;;;;4963293;28;20414;-87
2022/07/07 08:29:04;;;;;;;1.58;1.05;;;;;;;;;;4961092;28;20027;-87
2022/07/07 08:31:30;;;;;;;1.33;0.50;;;;;;;;;;4956347;28;20495;-84
2022/07/07 08:33:56;;;;;;;0.77;0.45;;;;;;;;;;4968684;28;20031;-89
2022/07/07 08:36:22;;;;;;;5.07;1.08;;;;;;;;;;4967892;28;20497;-85
2022/07/07 08:38:48;;;;;;;0.90;0.50;;;;;;;;;;4966832;28;20030;-87
2022/07/07 08:41:15;;;;;;;0.90;0.45;;;;;;;;;;4966713;28;20130;-88
2022/07/07 08:43:41;;;;;;;0.90;0.50;;;;;;;;;;4966449;28;20039;-87
2022/07/07 08:46:08;;;;;;;0.73;0.52;;;38.20;30.80;;;;;;4965396;28;20031;-86
2022/07/07 08:48:35;;;;;;;4.90;1.30;;;;;;;;;;4959499;28;20137;-86
2022/07/07 08:51:01;;;;;;;1.00;0.50;;;38.10;29.80;;;;;;4963104;28;20038;-86
2022/07/07 08:53:34;;;;;;;0.95;0.65;;;38.40;31.00;;;;;;4964842;28;20050;-86
2022/07/07 08:56:03;;;;;;;1.30;0.60;;;38.10;30.20;;;;;;4962533;28;20050;-86
2022/07/07 08:58:31;;;;;;;2.75;0.68;;;37.90;30.40;;;;;;4961047;28;20023;-86
2022/07/07 09:00:57;;;;;;;3.72;0.30;;;;;;;;;;4961648;28;20037;-86
2022/07/07 09:03:23;;;;;;;0.50;0.40;;;;;;;;;;4966864;28;20035;-86
2022/07/07 09:05:49;;;;;;;4.35;0.50;;;;;;;;;;4964164;28;20405;-84
2022/07/07 09:08:22;;;;;;;2.28;0.63;;;38.50;30.90;;;;;;4965119;28;20664;-85
2022/07/07 09:10:49;;;;;;;1.45;0.40;;;38.60;30.10;;;;;;4965926;28;20050;-87
2022/07/07 09:13:25;;;;;;;3.55;0.90;;;;;;;;;;4962055;28;20058;-88
2022/07/07 09:15:51;;;;;;;;;;;39.30;29.10;;;;;;4960437;28;20031;-86
2022/07/07 09:18:29;;;;;;;;;;;38.80;30.20;;;;;;4962415;28;19914;-86
2022/07/07 09:20:55;;;;;;;0.90;0.40;;;;;;;;;;4969642;28;19917;-86
2022/07/07 09:23:21;;;;;;;0.82;0.80;;;;;;;;;;4968866;28;20038;-87
2022/07/07 09:25:47;;;;;;;0.57;0.50;;;;;;;;;;4950978;28;20034;-86
2022/07/07 09:28:13;;;;;;;0.95;0.30;;;;;;;;;;4971004;28;20083;-86
2022/07/07 09:30:45;;;;;;;0.55;0.35;;;38.90;29.50;;;;;;4970096;28;20050;-85
2022/07/07 09:33:14;;;;;;;0.95;0.43;;;;;;;;;;4970158;28;20409;-85
2022/07/07 09:38:29;;;;;;;1.27;0.68;;;;;;;;;;4968376;28;20057;-86
2022/07/07 09:40:55;;;;;;;1.58;0.57;;;;;;;;;;4967870;28;20037;-85
2022/07/07 09:43:21;;;;;;;2.75;0.38;;;;;;;;;;4970522;28;20030;-87
2022/07/07 09:46:06;;;;;;;0.98;0.30;;;39.80;29.30;;;;;;4971521;28;20026;-86
2022/07/07 09:48:33;;;;;;;1.00;0.52;;;39.70;30.00;;;;;;4969462;28;20134;-85
2022/07/07 09:51:25;;;;;;;1.88;0.80;;;39.70;29.80;;;;;;4969075;28;20038;-86
2022/07/07 09:54:01;;;;;;;0.82;0.38;;;39.80;33.10;;;;;;4966991;28;20046;-85
2022/07/07 09:56:40;;;;;;;;;;;39.70;29.90;;;;;;4965049;28;20030;-85
2022/07/07 09:59:09;;;;;;;0.93;0.40;;;39.80;29.30;;;;;;4968576;28;19910;-85
2022/07/07 10:01:42;;;;;;;0.95;0.82;;;39.10;29.80;;;;;;4963787;28;20077;-85
2022/07/07 10:04:10;;;;;;;0.93;0.57;;;39.30;30.40;;;;;;4968181;28;20114;-85
2022/07/07 10:06:38;;;;;;;1.45;0.43;;;39.00;30.30;;;;;;4961702;28;20027;-88
2022/07/07 10:09:10;;;;;;;4.13;0.47;;;39.20;30.00;;;;;;4963898;28;20098;-86
2022/07/07 10:11:36;;;;;;;3.70;0.77;;;;;;;;;;4961475;28;20102;-87
2022/07/07 10:14:10;;;;;;;0.65;0.40;;;;;;;;;;4968144;28;20575;-86
2022/07/07 10:16:37;;;;;;;0.73;0.40;;;39.00;29.90;;;;;;4969009;28;20406;-86
2022/07/07 10:19:03;;;;;;;0.50;0.47;;;;;;;;;;4964962;28;20034;-86
2022/07/07 10:21:29;;;;;;;0.30;0.30;;;;;;;;;;4961665;28;20506;-85
2022/07/07 10:23:56;;;;;;;1.92;0.45;;;38.90;30.70;;;;;;4968721;28;20064;-87
2022/07/07 10:26:41;;;;;;;;;;;38.90;30.00;;;;;;4969551;28;20035;-86
2022/07/07 10:29:10;;;;;;;0.68;0.50;;;39.10;29.90;;;;;;4968294;28;19914;-86
2022/07/07 10:31:37;;;;;;;4.60;1.13;;;39.10;30.20;;;;;;4967785;28;20046;-85
2022/07/07 10:34:05;;;;;;;;;;;39.10;29.50;;;;;;4974701;28;20023;-86
2022/07/07 10:36:45;;;;;;;0.40;0.40;;;39.00;29.20;;;;;;4962628;28;19997;-87
2022/07/07 10:39:12;;;;;;;1.23;0.80;;;38.20;30.00;;;;;;4966477;28;20486;-85
2022/07/07 10:41:40;;;;;;;0.73;0.30;;;;;;;;;;4969695;28;20054;-85
2022/07/07 10:44:07;;;;;;;0.38;0.20;;;;;;;;;;4961240;28;20118;-85
2022/07/07 10:46:37;;;;;;;7.28;0.50;;;;;;;;;;4966206;28;20517;-87
2022/07/07 10:49:11;;;;;;;0.63;0.38;;;38.20;30.50;;;;;;4965965;28;20107;-87
2022/07/07 10:51:54;;;;;;;4.03;0.65;;;38.00;30.30;;;;;;4948725;28;20062;-87
2022/07/07 10:54:37;;;;;;;0.57;0.30;;;38.20;31.50;;;;;;4964482;28;20093;-87
2022/07/07 10:57:05;;;;;;;1.00;0.50;;;;;;;;;;4964420;28;20050;-88
2022/07/07 10:59:56;;;;;;;2.00;0.70;;;36.70;31.60;;;;;;4963462;28;20069;-87
2022/07/07 11:02:50;;;;;;;3.25;0.50;;;36.20;32.40;;;;;;4962436;28;20125;-86
2022/07/07 11:05:16;;;;;;;0.52;0.40;;;;;;;;;;4965387;28;20563;-87
2022/07/07 11:07:57;;;;;;;1.27;0.70;;;35.40;33.20;;;;;;4966547;28;20177;-86
2022/07/07 11:10:23;;;;;;;1.95;0.60;;;;;;;;;;4968147;28;20046;-86
2022/07/07 11:12:53;;;;;;;1.13;0.77;;;34.20;34.50;;;;;;4953244;28;20022;-86
2022/07/07 11:15:22;;;;;;;0.80;0.60;;;;;;;;;;4968016;28;24680;-85
2022/07/07 11:17:56;;;;;;;1.65;0.68;;;;;;;;;;4968497;28;20030;-87
2022/07/07 11:20:26;;;;;;;0.38;0.30;;;;;;;;;;4968393;28;20030;-86
2022/07/07 11:23:05;;;;;;;0.95;0.50;;;32.80;36.70;;;;;;4968119;28;20162;-86
2022/07/07 11:25:31;;;;;;;1.45;0.40;;;;;;;;;;4960957;28;20402;-86
2022/07/07 11:27:58;;;;;;;1.52;0.52;;;;;;;;;;4966205;28;20662;-86
2022/07/07 11:30:24;;;;;;;0.82;0.50;;;;;;;;;;4966472;28;20042;-85
2022/07/07 11:32:51;;;;;;;0.98;0.68;;;31.80;38.50;;;;;;4966306;28;20408;-86
2022/07/07 11:35:17;;;;;;;3.88;0.73;;;;;;;;;;4967429;28;20038;-85
2022/07/07 11:37:46;;;;;;;0.88;0.75;;;;;;;;;;4949628;28;20034;-88
2022/07/07 11:40:12;;;;;;;0.82;0.80;;;;;;;;;;4960229;28;20054;-87
2022/07/07 11:42:39;;;;;;;0.63;0.63;;;;;;;;;;4946958;28;20486;-85
2022/07/07 11:45:18;;;;;;;1.05;0.88;;;;;;;;;;4967683;28;20046;-86
2022/07/07 11:47:44;;;;;;;2.80;1.00;;;;;;;;;;4968640;28;20059;-85
2022/07/07 11:50:10;;;;;;;0.60;0.60;;;;;;;;;;4964668;28;20030;-85
2022/07/07 11:52:36;;;;;;;0.70;0.70;;;;;;;;;;4966488;28;20054;-86
2022/07/07 11:55:06;;;;;;;1.88;0.82;;;;;;;;;;4963554;28;20015;-86
2022/07/07 11:57:33;;;;;;;1.08;0.80;;;30.40;42.00;;;;;;4962291;28;20126;-87
2022/07/07 12:00:12;;;;;;;1.52;0.93;;;;;;;;;;4966478;28;20102;-85
2022/07/07 12:02:39;;;;;;;4.68;1.13;;;;;;;;;;4965724;28;20033;-87
2022/07/07 12:05:05;;;;;;;2.05;1.02;;;;;;;;;;4966802;28;20022;-86
2022/07/07 12:07:31;;;;;;;1.02;0.93;;;;;;;;;;4939354;28;20027;-84
2022/07/07 12:09:57;;;;;;;3.63;1.10;;;;;;;;;;4968682;28;20046;-86
2022/07/07 12:12:23;;;;;;;3.80;1.08;;;;;;;;;;4967543;28;20033;-87
2022/07/07 12:14:49;;;;;;;1.40;1.30;;;;;;;;;;4968128;28;20023;-88
2022/07/07 12:17:33;;;;;;;0.82;0.80;;;;;;;;;;4967382;28;20446;-84
2022/07/07 12:19:59;;;;;;;0.95;0.95;;;;;;;;;;4967051;28;20027;-86
2022/07/07 12:22:33;;;;;;;1.17;0.93;;;;;;;;;;4970153;28;20433;-86
2022/07/07 12:25:03;;;;;;;4.72;1.83;;;;;;;;;;4959534;28;20033;-84
2022/07/07 12:27:29;;;;;;;3.15;0.68;;;;;;;;;;4967051;28;20026;-84
2022/07/07 12:30:04;;;;;;;1.05;0.60;;;29.10;45.80;;;;;;4967548;28;20414;-87
2022/07/07 12:32:31;;;;;;;1.65;0.65;;;;;;;;;;4959616;28;20118;-87
2022/07/07 12:34:57;;;;;;;4.90;0.60;;;;;;;;;;4966640;28;20027;-83
2022/07/07 12:37:47;;;;;;;3.10;1.43;;;29.00;44.30;;;;;;4967952;28;20027;-84
2022/07/07 12:40:14;;;;;;;0.60;0.50;;;;;;;;;;4960840;28;20042;-83
2022/07/07 12:42:45;;;;;;;2.40;0.90;;;29.00;45.10;;;;;;4967056;28;20445;-84
2022/07/07 12:45:15;;;;;;;0.63;0.47;;;28.90;46.40;;;;;;4967595;28;20038;-83
2022/07/07 12:47:49;;;;;;;0.50;0.40;;;28.80;44.00;;;;;;4968755;28;20031;-84
2022/07/07 12:50:16;;;;;;;0.70;0.50;;;;;;;;;;4966528;28;20043;-84
2022/07/07 12:52:55;;;;;;;0.50;0.43;;;28.60;44.40;;;;;;4963529;28;24627;-84
2022/07/07 12:55:21;;;;;;;1.80;0.55;;;;;;;;;;4969737;28;20286;-84
2022/07/07 12:57:47;;;;;;;14.10;1.02;;;;;;;;;;4971632;28;20019;-84
2022/07/07 13:00:26;;;;;;;3.22;1.05;;;28.40;44.50;;;;;;4970854;28;20026;-85
2022/07/07 13:02:53;;;;;;;0.43;0.40;;;;;;;;;;4971272;28;20141;-84
2022/07/07 13:05:19;;;;;;;1.23;0.60;;;28.40;58.00;;;;;;4949363;28;20051;-86
2022/07/07 13:07:45;;;;;;;4.75;2.60;;;;;;;;;;4970829;28;20031;-86
2022/07/07 13:10:11;;;;;;;1.77;0.73;;;;;;;;;;4967860;28;20038;-87
2022/07/07 13:12:38;;;;;;;0.77;0.32;;;;;;;;;;4971106;28;20165;-87
2022/07/07 13:15:04;;;;;;;0.95;0.50;;;;;;;;;;4970541;28;20509;-84
2022/07/07 13:17:30;;;;;;;0.75;0.60;;;;;;;;;;4971570;28;20112;-84
2022/07/07 13:19:56;;;;;;;1.35;1.20;;;;;;;;;;4970455;28;20050;-86
2022/07/07 13:22:22;;;;;;;2.78;0.47;;;;;;;;;;4970786;28;20030;-87
2022/07/07 13:24:48;;;;;;;1.08;0.73;;;;;;;;;;4970729;28;20027;-87
2022/07/07 13:27:14;;;;;;;2.95;0.73;;;;;;;;;;4942470;28;20050;-86
2022/07/07 13:29:40;;;;;;;0.55;0.40;;;;;;;;;;4971410;28;20022;-86
2022/07/07 13:32:06;;;;;;;0.77;0.77;;;;;;;;;;4961999;28;20034;-87
2022/07/07 13:34:32;;;;;;;0.93;0.50;;;;;;;;;;4970328;28;20035;-87
2022/07/07 13:36:58;;;;;;;3.75;0.52;;;;;;;;;;4966522;28;20070;-87
2022/07/07 13:39:24;;;;;;;0.65;0.55;;;;;;;;;;4968566;28;20050;-86
2022/07/07 13:41:51;;;;;;;0.65;0.57;;;28.00;46.40;;;;;;4969592;28;20061;-87
2022/07/07 13:44:17;;;;;;;2.20;0.47;;;;;;;;;;4969817;28;20513;-87
2022/07/07 13:46:43;;;;;;;1.20;0.73;;;;;;;;;;4949023;28;20110;-86
2022/07/07 13:49:09;;;;;;;1.67;0.63;;;;;;;;;;4969613;28;20401;-87
2022/07/07 13:51:35;;;;;;;5.18;0.63;;;;;;;;;;4962054;28;20130;-87
2022/07/07 13:54:01;;;;;;;0.98;0.88;;;;;;;;;;4963837;28;20051;-87
2022/07/07 13:56:27;;;;;;;2.72;0.60;;;;;;;;;;4965010;28;20042;-87
2022/07/07 13:58:53;;;;;;;0.98;0.60;;;;;;;;;;4969954;28;20090;-85
2022/07/07 14:01:19;;;;;;;0.55;0.45;;;;;;;;;;4970162;28;20031;-84
2022/07/07 14:03:45;;;;;;;0.70;0.65;;;;;;;;;;4966753;28;20134;-84
2022/07/07 14:06:11;;;;;;;1.05;0.85;;;;;;;;;;4969219;28;20149;-85
2022/07/07 14:08:37;;;;;;;0.50;0.50;;;;;;;;;;4970416;28;20035;-86
2022/07/07 14:11:03;;;;;;;1.05;0.50;;;27.40;50.70;;;;;;4968795;28;20497;-85
2022/07/07 14:13:29;;;;;;;12.75;1.00;;;;;;;;;;4969907;28;20512;-86
2022/07/07 14:15:55;;;;;;;5.70;0.73;;;;;;;;;;4967037;28;20031;-86
2022/07/07 14:18:21;;;;;;;1.30;0.70;;;;;;;;;;4958766;28;20030;-86
2022/07/07 14:20:47;;;;;;;2.50;0.57;;;;;;;;;;4974985;28;20080;-86
2022/07/07 14:23:13;;;;;;;1.20;1.00;;;;;;;;;;4963572;28;20026;-85
2022/07/07 14:25:39;;;;;;;0.90;0.70;;;;;;;;;;4968934;28;20502;-85
2022/07/07 14:28:05;;;;;;;0.98;0.50;;;;;;;;;;4970991;28;20062;-88